Huntingdon, Canada
Current Conditions -  °F | °C
As of 4:00 AM on Saturday 29 Nov 2014 (Local Time) from CYUL Reporting Station
Broken Clouds Broken Clouds  
Wind Chill: -13°   Ceiling: 15000
Heat Index: -8°   Visibility: 15mi
Dew Point: -11°   Wind: 6mph
Humidity: 79%   Direction: 260°W
Pressure: 30.22"   Gusts: NA
Location:  45.08°N, 74.18°W
Report Text: CYUL 290900Z 26005KT 15SM FEW015 FEW030 BKN150 M08/M11 A3022 RMK SF1SC1AC4 SF TR SLP236
Loading
Personal Weather Stations






























Interactive Weather Map New forecast layout! Learn more

10-Day Weather Forecast

Advertisements
Track Severe Weather on mobile